createdAt,value
2022-11-09T00:00:55.294Z,46.10
2022-11-09T00:03:22.654Z,47.58
2022-11-09T00:05:59.952Z,49.17
2022-11-09T00:08:27.628Z,48.50
2022-11-09T00:10:54.554Z,48.65
2022-11-09T00:13:22.308Z,49.95
2022-11-09T00:15:49.547Z,47.35
2022-11-09T00:18:16.493Z,50.20
2022-11-09T00:20:47.525Z,51.45
2022-11-09T00:23:17.163Z,54.92
2022-11-09T00:25:44.589Z,56.60
2022-11-09T00:28:11.841Z,58.00
2022-11-09T00:30:38.843Z,56.00
2022-11-09T00:33:05.959Z,55.90
2022-11-09T00:35:33.574Z,53.53
2022-11-09T00:38:03.659Z,52.00
2022-11-09T00:40:32.014Z,49.50
2022-11-09T00:42:58.934Z,50.22
2022-11-09T00:45:29.841Z,49.30
2022-11-09T00:47:57.650Z,47.47
2022-11-09T00:50:24.582Z,46.40
2022-11-09T00:52:51.669Z,48.38
2022-11-09T00:55:21.225Z,51.67
2022-11-09T00:57:51.957Z,49.60
2022-11-09T01:00:23.388Z,47.00
2022-11-09T01:02:51.231Z,50.55
2022-11-09T01:05:19.790Z,50.83
2022-11-09T01:07:49.075Z,51.13
2022-11-09T01:10:16.159Z,51.72
2022-11-09T01:12:43.164Z,52.65
2022-11-09T01:15:10.298Z,51.33
2022-11-09T01:17:37.316Z,54.20
2022-11-09T01:20:04.830Z,51.53
2022-11-09T01:22:31.721Z,54.20
2022-11-09T01:24:58.732Z,50.90
2022-11-09T01:27:25.760Z,53.42
2022-11-09T01:29:52.737Z,55.53
2022-11-09T01:32:19.688Z,54.20
2022-11-09T01:34:46.718Z,52.55
2022-11-09T01:37:13.744Z,50.90
2022-11-09T01:39:40.724Z,50.65
2022-11-09T01:42:07.866Z,51.20
2022-11-09T01:44:35.649Z,47.70
2022-11-09T01:47:08.102Z,46.95
2022-11-09T01:49:54.898Z,47.45
2022-11-09T01:52:34.242Z,49.17
2022-11-09T01:55:12.203Z,45.92
2022-11-09T02:02:51.982Z,43.65
2022-11-09T02:05:25.577Z,43.03
2022-11-09T02:07:55.672Z,42.50
2022-11-09T02:10:33.927Z,45.13
2022-11-09T02:13:02.760Z,42.47
2022-11-09T02:15:39.134Z,42.90
2022-11-09T02:18:11.573Z,41.95
2022-11-09T02:20:47.006Z,44.55
2022-11-09T02:23:14.457Z,45.03
2022-11-09T02:25:45.349Z,43.95
2022-11-09T02:28:13.330Z,43.42
2022-11-09T02:30:44.198Z,42.67
2022-11-09T02:33:11.151Z,42.65
2022-11-09T02:35:38.319Z,41.90
2022-11-09T02:38:09.854Z,41.22
2022-11-09T02:40:41.143Z,44.05
2022-11-09T02:43:10.009Z,41.38
2022-11-09T02:45:37.131Z,44.92
2022-11-09T02:48:06.289Z,41.95
2022-11-09T02:50:37.219Z,43.78
2022-11-09T02:53:06.220Z,41.42
2022-11-09T02:55:36.491Z,44.85
2022-11-09T02:58:03.610Z,42.38
2022-11-09T03:00:30.659Z,43.95
2022-11-09T03:02:58.118Z,46.10
2022-11-09T03:05:25.223Z,44.97
2022-11-09T03:07:52.401Z,46.10
2022-11-09T03:10:19.507Z,46.40
2022-11-09T03:12:47.023Z,46.45
2022-11-09T03:15:15.123Z,45.63
2022-11-09T03:17:45.334Z,42.63
2022-11-09T03:20:13.416Z,39.45
2022-11-09T03:22:41.703Z,42.25
2022-11-09T03:25:09.442Z,40.13
2022-11-09T03:27:36.386Z,40.20
2022-11-09T03:30:04.736Z,40.22
2022-11-09T03:32:31.732Z,33.00
2022-11-09T03:34:58.792Z,37.25
2022-11-09T03:37:25.800Z,39.67
2022-11-09T03:39:52.894Z,37.65
2022-11-09T03:42:19.876Z,39.08
2022-11-09T03:44:46.882Z,40.20
2022-11-09T03:47:13.920Z,40.35
2022-11-09T03:49:40.870Z,38.70
2022-11-09T03:52:07.922Z,39.67
2022-11-09T03:54:35.062Z,40.60
2022-11-09T03:57:01.990Z,38.53
2022-11-09T03:59:28.945Z,37.85
2022-11-09T04:01:55.934Z,36.90
2022-11-09T04:04:22.934Z,35.72
2022-11-09T04:06:49.941Z,34.63
2022-11-09T04:09:16.983Z,32.03
2022-11-09T04:11:43.899Z,33.92
2022-11-09T04:14:10.913Z,32.72
2022-11-09T04:16:37.926Z,35.72
2022-11-09T04:19:05.059Z,34.90
2022-11-09T04:21:33.647Z,36.17
2022-11-09T04:24:00.671Z,36.88
2022-11-09T04:26:27.715Z,34.05
2022-11-09T04:28:54.667Z,36.88
2022-11-09T04:31:26.886Z,33.67
2022-11-09T04:33:55.035Z,32.38
2022-11-09T04:36:22.217Z,27.73
2022-11-09T04:38:49.293Z,25.88
2022-11-09T04:41:16.586Z,27.35
2022-11-09T04:43:43.585Z,29.10
2022-11-09T04:46:10.639Z,26.45
2022-11-09T04:48:37.799Z,31.83
2022-11-09T04:51:07.701Z,27.30
2022-11-09T04:53:35.516Z,26.48
2022-11-09T04:56:02.941Z,26.15
2022-11-09T04:58:30.095Z,28.23
2022-11-09T05:01:04.023Z,28.25
2022-11-09T05:03:31.242Z,28.83
2022-11-09T05:05:58.418Z,28.75
2022-11-09T05:08:26.176Z,30.38
2022-11-09T05:10:58.153Z,29.90
2022-11-09T05:13:25.118Z,33.55
2022-11-09T05:15:52.112Z,33.17
2022-11-09T05:18:19.108Z,33.15
2022-11-09T05:20:46.085Z,34.63
2022-11-09T05:23:31.364Z,37.92
2022-11-09T05:25:58.349Z,34.28
2022-11-09T05:28:25.269Z,33.95
2022-11-09T05:30:52.294Z,35.97
2022-11-09T05:33:19.802Z,32.78
2022-11-09T05:35:46.976Z,30.15
2022-11-09T05:38:13.978Z,30.63
2022-11-09T05:40:40.951Z,28.13
2022-11-09T05:43:07.999Z,29.80
2022-11-09T05:45:43.765Z,28.73
2022-11-09T05:48:16.495Z,27.83
2022-11-09T05:50:44.492Z,27.83
2022-11-09T05:53:20.459Z,27.42
2022-11-09T05:55:47.850Z,25.90
2022-11-09T05:58:14.837Z,25.23
2022-11-09T06:00:41.883Z,26.08
2022-11-09T06:03:11.303Z,24.73
2022-11-09T06:05:40.691Z,25.70
2022-11-09T06:08:13.823Z,26.42
2022-11-09T06:10:42.231Z,26.00
2022-11-09T06:13:10.058Z,25.95
2022-11-09T06:15:37.204Z,24.88
2022-11-09T06:18:04.590Z,24.08
2022-11-09T06:20:33.371Z,26.23
2022-11-09T06:23:03.770Z,24.95
2022-11-09T06:25:33.352Z,24.83
2022-11-09T06:28:00.781Z,24.67
2022-11-09T06:30:27.754Z,25.25
2022-11-09T06:33:02.575Z,23.05
2022-11-09T06:35:30.185Z,24.90
2022-11-09T06:37:58.333Z,22.80
2022-11-09T06:40:25.583Z,24.33
2022-11-09T06:42:52.731Z,21.88
2022-11-09T06:45:19.802Z,23.27
2022-11-09T06:47:46.799Z,23.38
2022-11-09T06:50:13.862Z,23.80
2022-11-09T06:52:40.872Z,22.33
2022-11-09T06:55:08.687Z,23.75
2022-11-09T06:57:35.729Z,23.50
2022-11-09T07:00:04.286Z,23.95
2022-11-09T07:02:31.777Z,23.88
2022-11-09T07:04:58.953Z,23.15
2022-11-09T07:07:28.240Z,23.67
2022-11-09T07:09:56.073Z,23.63
2022-11-09T07:12:23.398Z,22.63
2022-11-09T07:14:50.431Z,23.88
2022-11-09T07:17:17.543Z,22.30
2022-11-09T07:19:44.607Z,22.90
2022-11-09T07:22:11.632Z,23.90
2022-11-09T07:24:38.859Z,23.20
2022-11-09T07:27:05.973Z,22.80
2022-11-09T07:29:32.910Z,22.70
2022-11-09T07:31:59.865Z,23.63
2022-11-09T07:34:26.873Z,22.02
2022-11-09T07:36:54.733Z,30.95
2022-11-09T07:39:21.941Z,23.80
2022-11-09T07:41:49.457Z,22.45
2022-11-09T07:44:18.892Z,23.42
2022-11-09T07:46:49.853Z,23.40
2022-11-09T07:49:17.705Z,21.92
2022-11-09T07:51:44.726Z,22.13
2022-11-09T07:54:12.146Z,23.38
2022-11-09T07:56:39.181Z,27.17
2022-11-09T07:59:06.225Z,27.17
2022-11-09T08:01:33.359Z,29.40
2022-11-09T08:04:00.412Z,28.48
2022-11-09T08:06:28.295Z,25.45
2022-11-09T08:08:56.024Z,26.15
2022-11-09T08:11:23.037Z,25.58
2022-11-09T08:13:50.168Z,24.92
2022-11-09T08:16:17.324Z,25.83
2022-11-09T08:18:44.452Z,25.23
2022-11-09T08:21:11.566Z,25.33
2022-11-09T08:23:38.632Z,26.17
2022-11-09T08:26:06.899Z,26.17
2022-11-09T08:28:35.223Z,27.98
2022-11-09T08:31:06.116Z,25.13
2022-11-09T08:33:38.808Z,23.13
2022-11-09T08:36:13.984Z,25.73
2022-11-09T08:38:42.316Z,26.25
2022-11-09T08:41:13.468Z,25.50
2022-11-09T08:43:41.143Z,25.05
2022-11-09T08:46:08.180Z,24.83
2022-11-09T08:48:35.165Z,23.52
2022-11-09T08:51:02.357Z,23.48
2022-11-09T08:53:30.335Z,23.95
2022-11-09T08:55:57.988Z,23.35
2022-11-09T08:58:25.056Z,22.45
2022-11-09T09:00:52.077Z,20.60
2022-11-09T09:03:19.205Z,23.30
2022-11-09T09:05:46.320Z,22.73
2022-11-09T09:08:15.741Z,24.08
2022-11-09T09:10:43.280Z,24.35
2022-11-09T09:13:10.533Z,25.67
2022-11-09T09:15:37.766Z,24.35
2022-11-09T09:18:05.636Z,25.25
2022-11-09T09:20:33.540Z,22.33
2022-11-09T09:23:01.538Z,21.17
2022-11-09T09:25:28.730Z,19.45
2022-11-09T09:27:55.926Z,20.05
2022-11-09T09:30:23.099Z,18.98
2022-11-09T09:32:50.056Z,17.15
2022-11-09T09:35:17.660Z,16.95
2022-11-09T09:37:44.866Z,14.90
2022-11-09T09:40:26.162Z,13.07
2022-11-09T09:42:55.234Z,13.32
2022-11-09T09:45:28.312Z,13.50
2022-11-09T09:48:16.751Z,14.32
2022-11-09T09:50:56.569Z,13.30
2022-11-09T09:56:14.045Z,13.10
2022-11-09T09:58:50.218Z,13.52
2022-11-09T10:01:20.526Z,13.93
2022-11-09T10:03:48.446Z,13.50
2022-11-09T10:06:33.884Z,13.98
2022-11-09T10:09:37.628Z,16.45
2022-11-09T10:12:35.142Z,15.95
2022-11-09T10:15:40.732Z,15.15
2022-11-09T10:18:29.492Z,15.77
2022-11-09T10:21:02.210Z,13.98
2022-11-09T10:23:49.534Z,15.05
2022-11-09T10:26:29.884Z,14.90
2022-11-09T10:29:16.855Z,14.50
2022-11-09T10:31:46.867Z,78.40
2022-11-09T10:34:19.729Z,22.33
2022-11-09T10:37:04.772Z,12.00
2022-11-09T10:39:57.836Z,11.35
2022-11-09T10:42:46.447Z,12.05
2022-11-09T10:45:38.078Z,14.27
2022-11-09T10:48:40.545Z,11.80
2022-11-09T10:51:33.804Z,15.38
2022-11-09T10:54:22.268Z,11.55
2022-11-09T10:57:17.447Z,9.60
2022-11-09T11:00:05.336Z,11.88
2022-11-09T11:02:52.811Z,11.07
2022-11-09T11:05:39.987Z,11.27
2022-11-09T11:08:36.708Z,12.40
2022-11-09T11:11:35.025Z,10.77
2022-11-09T11:14:30.482Z,16.35
2022-11-09T11:17:25.507Z,9.95
2022-11-09T11:20:36.878Z,10.13
2022-11-09T11:23:25.389Z,6.35
2022-11-09T11:26:19.997Z,7.07
2022-11-09T11:29:28.444Z,5.82
2022-11-09T11:32:19.255Z,5.28
2022-11-09T11:35:13.248Z,5.18
2022-11-09T11:38:28.053Z,5.93
2022-11-09T11:41:39.439Z,4.40
2022-11-09T11:44:56.733Z,4.05
2022-11-09T11:47:51.830Z,6.47
2022-11-09T11:50:52.679Z,5.07
2022-11-09T11:53:53.857Z,5.57
2022-11-09T11:56:47.528Z,4.43
2022-11-09T11:59:44.285Z,4.63
2022-11-09T12:02:55.856Z,4.18
2022-11-09T12:06:00.201Z,4.20
2022-11-09T12:08:46.138Z,5.55
2022-11-09T12:11:52.572Z,4.75
2022-11-09T12:15:00.325Z,4.10
2022-11-09T12:18:02.628Z,4.47
2022-11-09T12:21:00.356Z,4.80
2022-11-09T12:24:10.332Z,3.97
2022-11-09T12:27:32.191Z,5.25
2022-11-09T12:30:25.173Z,5.63
2022-11-09T12:33:30.746Z,4.47
2022-11-09T12:36:36.664Z,4.65
2022-11-09T12:39:28.044Z,4.35
2022-11-09T12:42:20.618Z,7.13
2022-11-09T12:45:31.152Z,4.53
2022-11-09T12:48:29.945Z,4.00
2022-11-09T12:51:16.913Z,3.83
2022-11-09T12:54:10.198Z,4.25
2022-11-09T12:57:10.135Z,4.00
2022-11-09T12:59:57.779Z,3.72
2022-11-09T13:02:58.725Z,4.03
2022-11-09T13:05:47.714Z,4.10
2022-11-09T13:08:33.545Z,4.30
2022-11-09T13:11:20.975Z,5.47
2022-11-09T13:14:21.791Z,5.05
2022-11-09T13:17:39.157Z,5.15
2022-11-09T13:20:54.603Z,4.55
2022-11-09T13:26:47.122Z,5.40
2022-11-09T13:29:41.403Z,4.80
2022-11-09T13:32:28.310Z,4.93
2022-11-09T13:35:46.582Z,6.05
2022-11-09T13:38:33.973Z,5.30
2022-11-09T13:41:43.409Z,5.00
2022-11-09T13:47:34.963Z,4.90
2022-11-09T13:50:23.764Z,5.53
2022-11-09T13:53:37.145Z,4.88
2022-11-09T13:56:33.772Z,4.50
2022-11-09T13:59:22.376Z,5.00
2022-11-09T14:02:23.784Z,4.40
2022-11-09T14:05:37.800Z,4.50
2022-11-09T14:08:28.433Z,4.72
2022-11-09T14:11:24.077Z,4.53
2022-11-09T14:14:31.792Z,5.57
2022-11-09T14:17:36.421Z,4.63
2022-11-09T14:20:32.345Z,4.85
2022-11-09T14:23:20.479Z,4.40
2022-11-09T14:26:16.353Z,4.13
2022-11-09T14:29:20.515Z,4.43
2022-11-09T14:32:24.485Z,5.20
2022-11-09T14:35:36.602Z,5.53
2022-11-09T14:38:26.028Z,4.60
2022-11-09T14:41:25.662Z,4.45
2022-11-09T14:44:26.326Z,5.15
2022-11-09T14:47:33.053Z,4.75
2022-11-09T14:50:26.983Z,5.40
2022-11-09T14:53:33.416Z,6.03
2022-11-09T14:56:20.773Z,6.43
2022-11-09T14:59:08.573Z,5.72
2022-11-09T15:02:07.366Z,5.18
2022-11-09T15:05:04.395Z,5.10
2022-11-09T15:07:50.364Z,5.57
2022-11-09T15:10:36.600Z,5.57
2022-11-09T15:13:48.491Z,5.57
2022-11-09T15:16:33.882Z,5.03
2022-11-09T15:19:47.935Z,5.28
2022-11-09T15:22:45.314Z,5.93
2022-11-09T15:25:43.619Z,5.22
2022-11-09T15:28:31.158Z,5.72
2022-11-09T15:31:19.552Z,5.10
2022-11-09T15:34:22.747Z,5.80
2022-11-09T15:37:24.213Z,4.70
2022-11-09T15:40:15.489Z,5.05
2022-11-09T15:43:00.994Z,5.68
2022-11-09T15:45:46.421Z,5.18
2022-11-09T15:48:32.316Z,4.45
2022-11-09T15:51:19.007Z,4.38
2022-11-09T15:54:05.009Z,5.28
2022-11-09T15:56:52.089Z,4.90
2022-11-09T15:59:38.088Z,5.00
2022-11-09T16:02:23.692Z,5.18
2022-11-09T16:05:09.555Z,5.07
2022-11-09T16:07:55.454Z,5.82
2022-11-09T16:10:42.219Z,5.03
2022-11-09T16:13:28.358Z,5.32
2022-11-09T16:16:15.680Z,5.50
2022-11-09T16:19:01.286Z,5.32
2022-11-09T16:21:47.295Z,5.22
2022-11-09T16:24:32.878Z,4.60
2022-11-09T16:27:43.437Z,4.72
2022-11-09T16:30:25.482Z,5.75
2022-11-09T16:33:11.358Z,5.47
2022-11-09T16:36:00.810Z,5.50
2022-11-09T16:38:49.642Z,5.57
2022-11-09T16:41:39.144Z,5.35
2022-11-09T16:44:25.435Z,6.00
2022-11-09T16:47:13.785Z,5.85
2022-11-09T16:49:59.343Z,6.20
2022-11-09T16:52:45.293Z,5.95
2022-11-09T16:55:30.988Z,5.80
2022-11-09T16:58:16.852Z,6.90
2022-11-09T17:01:12.103Z,6.65
2022-11-09T17:03:58.861Z,6.13
2022-11-09T17:06:44.862Z,6.55
2022-11-09T17:09:34.407Z,5.47
2022-11-09T17:12:22.766Z,6.07
2022-11-09T17:15:12.176Z,6.18
2022-11-09T17:18:01.595Z,6.20
2022-11-09T17:20:50.201Z,7.20
2022-11-09T17:23:39.072Z,7.35
2022-11-09T17:26:25.799Z,7.30
2022-11-09T17:29:12.931Z,7.75
2022-11-09T17:31:59.072Z,7.65
2022-11-09T17:34:44.760Z,7.65
2022-11-09T17:37:33.963Z,7.55
2022-11-09T17:40:42.797Z,6.60
2022-11-09T17:43:34.031Z,7.50
2022-11-09T17:46:24.481Z,8.82
2022-11-09T17:49:16.211Z,7.65
2022-11-09T17:52:05.241Z,8.00
2022-11-09T17:54:51.396Z,8.68
2022-11-09T17:57:37.884Z,9.02
2022-11-09T18:00:24.344Z,7.55
2022-11-09T18:03:12.478Z,8.10
2022-11-09T18:05:58.266Z,11.88
2022-11-09T18:09:03.518Z,9.20
2022-11-09T18:11:53.196Z,8.75
2022-11-09T18:14:45.580Z,8.50
2022-11-09T18:17:33.886Z,9.95
2022-11-09T18:20:28.990Z,10.68
2022-11-09T18:23:14.617Z,35.00
2022-11-09T18:26:01.510Z,9.45
2022-11-09T18:28:50.392Z,11.02
2022-11-09T18:31:36.467Z,9.80
2022-11-09T18:34:22.140Z,9.85
2022-11-09T18:37:07.865Z,9.85
2022-11-09T18:39:54.410Z,8.65
2022-11-09T18:42:40.328Z,7.72
2022-11-09T18:45:25.887Z,11.02
2022-11-09T18:48:11.570Z,11.63
2022-11-09T18:50:58.661Z,10.90
2022-11-09T18:53:46.300Z,9.35
2022-11-09T18:56:32.206Z,9.73
2022-11-09T18:59:17.955Z,11.73
2022-11-09T19:02:03.882Z,8.95
2022-11-09T19:04:49.370Z,9.77
2022-11-09T19:07:35.290Z,10.85
2022-11-09T19:10:21.072Z,12.25
2022-11-09T19:13:06.965Z,9.45
2022-11-09T19:15:55.668Z,9.88
2022-11-09T19:18:43.678Z,10.30
2022-11-09T19:21:32.508Z,11.32
2022-11-09T19:24:20.984Z,11.15
2022-11-09T19:27:09.364Z,12.77
2022-11-09T19:29:55.497Z,14.37
2022-11-09T19:32:41.429Z,11.25
2022-11-09T19:35:33.480Z,11.52
2022-11-09T19:38:19.862Z,13.98
2022-11-09T19:41:06.056Z,12.45
2022-11-09T19:43:54.866Z,10.57
2022-11-09T19:46:40.629Z,9.88
2022-11-09T19:49:26.383Z,9.75
2022-11-09T19:52:12.756Z,8.75
2022-11-09T19:54:58.790Z,7.35
2022-11-09T19:57:44.500Z,8.52
2022-11-09T20:00:30.093Z,7.65
2022-11-09T20:03:15.479Z,7.45
2022-11-09T20:06:02.405Z,8.00
2022-11-09T20:08:48.191Z,6.80
2022-11-09T20:11:52.251Z,7.95
2022-11-09T20:14:37.996Z,7.38
2022-11-09T20:17:23.587Z,7.30
2022-11-09T20:20:09.905Z,8.43
2022-11-09T20:22:55.798Z,7.20
2022-11-09T20:25:41.608Z,7.78
2022-11-09T20:28:27.525Z,7.50
2022-11-09T20:31:17.423Z,8.75
2022-11-09T20:34:10.246Z,8.00
2022-11-09T20:36:56.181Z,8.57
2022-11-09T20:39:43.363Z,7.88
2022-11-09T20:42:29.360Z,8.73
2022-11-09T20:45:15.831Z,8.65
2022-11-09T20:48:14.684Z,6.90
2022-11-09T20:51:09.163Z,7.93
2022-11-09T20:54:03.808Z,6.88
2022-11-09T20:56:52.495Z,7.40
2022-11-09T20:59:38.113Z,8.10
2022-11-09T21:02:23.539Z,7.45
2022-11-09T21:05:09.430Z,7.40
2022-11-09T21:07:55.339Z,8.15
2022-11-09T21:10:40.848Z,8.40
2022-11-09T21:13:26.746Z,7.90
2022-11-09T21:16:14.658Z,11.15
2022-11-09T21:19:00.187Z,7.88
2022-11-09T21:21:46.142Z,7.82
2022-11-09T21:24:50.347Z,8.23
2022-11-09T21:28:13.080Z,8.90
2022-11-09T21:31:02.756Z,7.10
2022-11-09T21:33:48.523Z,7.38
2022-11-09T21:36:33.892Z,8.05
2022-11-09T21:39:19.399Z,8.88
2022-11-09T21:42:05.428Z,8.63
2022-11-09T21:44:51.322Z,7.70
2022-11-09T21:47:37.570Z,8.52
2022-11-09T21:50:23.483Z,8.50
2022-11-09T21:53:09.185Z,7.90
2022-11-09T21:55:54.704Z,7.60
2022-11-09T21:58:40.457Z,12.25
2022-11-09T22:01:26.352Z,9.23
2022-11-09T22:04:12.378Z,10.93
2022-11-09T22:06:58.282Z,20.40
2022-11-09T22:10:08.986Z,11.00
2022-11-09T22:13:08.370Z,8.52
2022-11-09T22:16:07.571Z,9.15
2022-11-09T22:19:12.142Z,7.18
2022-11-09T22:21:57.969Z,8.38
2022-11-09T22:24:43.435Z,7.13
2022-11-09T22:27:31.668Z,7.85
2022-11-09T22:30:17.598Z,9.07
2022-11-09T22:33:03.231Z,7.15
2022-11-09T22:35:56.154Z,6.82
2022-11-09T22:38:42.274Z,7.75
2022-11-09T22:41:28.255Z,6.93
2022-11-09T22:44:13.612Z,6.22
2022-11-09T22:46:59.707Z,6.97
2022-11-09T22:49:45.317Z,6.47
2022-11-09T22:52:30.906Z,6.10
2022-11-09T22:55:16.446Z,6.50
2022-11-09T22:58:02.136Z,6.35
2022-11-09T23:00:47.927Z,6.20
2022-11-09T23:03:34.494Z,5.40
2022-11-09T23:06:22.201Z,4.95
2022-11-09T23:09:08.171Z,5.10
2022-11-09T23:11:53.786Z,5.10
2022-11-09T23:14:58.018Z,4.78
2022-11-09T23:18:02.000Z,6.07
2022-11-09T23:20:48.246Z,4.82
2022-11-09T23:23:34.076Z,4.68
2022-11-09T23:26:20.544Z,5.25
2022-11-09T23:29:06.566Z,5.82
2022-11-09T23:31:52.299Z,5.20
2022-11-09T23:34:38.027Z,5.00
2022-11-09T23:37:23.774Z,4.97
2022-11-09T23:40:10.092Z,5.28
2022-11-09T23:43:22.182Z,5.07
2022-11-09T23:46:10.551Z,5.28
2022-11-09T23:48:56.520Z,5.28
2022-11-09T23:51:42.023Z,5.40
2022-11-09T23:54:27.581Z,5.05
2022-11-09T23:57:13.608Z,5.30
2022-11-09T23:59:59.186Z,5.38
